Time;durP1;ratioP1;P1;durP2;ratioP2;P2;SDS_P1;SDS_P2;PMS_P1;PMS_P2;Temp;Humidity;BMP_temperature;BMP_pressure;BME280_temperature;BME280_humidity;BME280_pressure;Samples;Min_cycle;Max_cycle;Signal;HPM_P1;HPM_P2
2023/01/25 00:03:32;;;;;;;35.50;20.55;;;3.30;82.70;;;;;;6179151;23;20172;-79
2023/01/25 00:06:01;;;;;;;38.78;21.08;;;3.30;82.90;;;;;;6215830;23;20192;-78
2023/01/25 00:08:29;;;;;;;41.15;20.83;;;3.30;82.60;;;;;;6218392;23;20547;-78
2023/01/25 00:10:56;;;;;;;35.08;20.25;;;3.20;82.70;;;;;;6218701;23;20185;-77
2023/01/25 00:13:25;;;;;;;35.05;18.80;;;3.20;82.90;;;;;;6217731;23;20239;-78
2023/01/25 00:15:53;;;;;;;39.45;21.17;;;3.20;82.80;;;;;;6217590;23;20179;-77
2023/01/25 00:18:21;;;;;;;38.47;21.65;;;3.20;82.90;;;;;;6218279;23;20196;-77
2023/01/25 00:20:50;;;;;;;47.13;25.77;;;3.20;82.90;;;;;;6218049;23;20642;-78
2023/01/25 00:23:18;;;;;;;51.13;28.67;;;3.20;82.90;;;;;;6217547;23;20180;-78
2023/01/25 00:25:46;;;;;;;42.67;21.02;;;3.20;83.00;;;;;;6218193;23;20188;-78
2023/01/25 00:28:14;;;;;;;43.83;22.85;;;3.20;82.90;;;;;;6220050;23;20927;-75
2023/01/25 00:30:43;;;;;;;39.85;24.17;;;3.20;82.80;;;;;;6220716;23;20172;-78
2023/01/25 00:33:34;;;;;;;38.72;21.73;;;3.10;82.90;;;;;;6218582;23;20183;-78
2023/01/25 00:36:28;;;;;;;40.28;22.48;;;3.20;83.00;;;;;;6220646;23;20283;-78
2023/01/25 00:38:57;;;;;;;37.53;21.10;;;3.20;83.00;;;;;;6219848;23;20188;-78
2023/01/25 00:41:26;;;;;;;36.60;20.58;;;3.20;83.10;;;;;;6220062;23;20183;-77
2023/01/25 00:43:54;;;;;;;42.25;22.88;;;3.20;83.10;;;;;;6218934;23;20259;-78
2023/01/25 00:46:22;;;;;;;38.60;21.70;;;3.20;83.10;;;;;;6220271;23;20639;-78
2023/01/25 00:48:53;;;;;;;38.08;20.70;;;3.30;83.20;;;;;;6183025;23;20202;-78
2023/01/25 00:51:23;;;;;;;41.42;20.10;;;3.30;83.00;;;;;;6183932;23;20172;-78
2023/01/25 00:53:51;;;;;;;39.53;20.85;;;3.20;82.90;;;;;;6219897;23;20171;-79
2023/01/25 00:56:19;;;;;;;30.85;17.88;;;3.20;83.00;;;;;;6220283;23;20171;-78
2023/01/25 00:58:47;;;;;;;39.17;20.52;;;3.20;82.90;;;;;;6182989;23;20877;-78
2023/01/25 01:01:17;;;;;;;33.35;18.33;;;3.20;83.00;;;;;;6184887;23;20180;-78
2023/01/25 01:03:45;;;;;;;32.10;17.55;;;3.10;83.00;;;;;;6181829;23;20518;-78
2023/01/25 01:06:13;;;;;;;34.30;17.55;;;3.10;83.00;;;;;;6219224;23;20202;-78
2023/01/25 01:08:43;;;;;;;39.05;21.50;;;3.10;82.90;;;;;;6219596;23;20192;-79
2023/01/25 01:11:13;;;;;;;36.05;20.27;;;3.10;83.00;;;;;;6219993;23;20575;-78
2023/01/25 01:13:41;;;;;;;38.58;21.10;;;3.10;82.90;;;;;;6219241;23;20222;-78
2023/01/25 01:16:11;;;;;;;36.58;20.80;;;3.10;83.10;;;;;;6182587;23;20595;-78
2023/01/25 01:18:41;;;;;;;36.47;20.17;;;3.10;83.10;;;;;;6219538;23;20196;-78
2023/01/25 01:21:09;;;;;;;39.05;19.25;;;3.10;83.10;;;;;;6219066;23;20503;-78
2023/01/25 01:23:38;;;;;;;34.33;19.33;;;3.00;83.00;;;;;;6219100;23;20159;-79
2023/01/25 01:26:11;;;;;;;37.85;20.38;;;3.00;83.10;;;;;;6182466;23;20978;-79
2023/01/25 01:28:39;;;;;;;30.98;17.02;;;3.00;83.20;;;;;;6219397;23;20188;-78
2023/01/25 01:31:10;;;;;;;40.35;19.65;;;3.00;83.20;;;;;;6182026;23;20180;-79
2023/01/25 01:33:42;;;;;;;30.20;15.90;;;3.10;83.20;;;;;;6181040;23;20808;-77
2023/01/25 01:36:12;;;;;;;27.10;16.25;;;3.10;83.20;;;;;;6181469;23;20176;-78
2023/01/25 01:38:40;;;;;;;31.33;17.23;;;3.10;83.20;;;;;;6219327;23;20199;-78
2023/01/25 01:41:10;;;;;;;29.77;16.02;;;3.10;83.20;;;;;;6217836;23;20223;-77
2023/01/25 01:43:39;;;;;;;25.42;15.30;;;3.10;83.10;;;;;;6182351;23;20180;-77
2023/01/25 01:46:14;;;;;;;39.42;19.55;;;3.10;83.10;;;;;;6182376;23;20271;-78
2023/01/25 01:48:45;;;;;;;29.48;14.85;;;3.10;83.10;;;;;;6219301;23;20192;-78
2023/01/25 01:51:19;;;;;;;25.05;15.68;;;3.10;83.10;;;;;;6182895;23;20192;-78
2023/01/25 01:53:52;;;;;;;28.55;15.30;;;3.10;83.00;;;;;;6184129;23;20183;-78
2023/01/25 01:56:27;;;;;;;31.15;15.48;;;3.10;83.20;;;;;;6183086;23;20267;-79
2023/01/25 01:58:58;;;;;;;27.63;15.90;;;3.10;83.10;;;;;;6182724;23;20588;-78
2023/01/25 02:01:27;;;;;;;27.33;16.17;;;3.00;83.00;;;;;;6180698;23;20183;-79
2023/01/25 02:04:04;;;;;;;31.60;17.02;;;3.00;83.10;;;;;;6182731;23;20176;-78
2023/01/25 02:06:38;;;;;;;31.80;18.10;;;3.00;83.20;;;;;;6218834;23;20176;-78
2023/01/25 02:09:06;;;;;;;33.90;19.65;;;3.00;83.20;;;;;;6182520;23;20200;-79
2023/01/25 02:11:37;;;;;;;32.80;17.98;;;3.10;83.50;;;;;;6181222;23;20522;-78
2023/01/25 02:14:06;;;;;;;30.80;18.38;;;3.10;83.30;;;;;;6182427;23;20168;-77
2023/01/25 02:16:34;;;;;;;47.85;22.70;;;3.10;83.20;;;;;;6218822;23;20179;-77
2023/01/25 02:19:04;;;;;;;34.88;18.30;;;3.10;83.20;;;;;;6182595;23;20200;-78
2023/01/25 02:21:39;;;;;;;34.60;18.75;;;3.10;83.20;;;;;;6182427;23;20188;-79
2023/01/25 02:24:11;;;;;;;38.03;21.63;;;3.10;83.20;;;;;;6182326;23;20258;-78
2023/01/25 02:26:41;;;;;;;29.83;16.40;;;3.10;83.20;;;;;;6181871;23;20275;-78
2023/01/25 02:29:10;;;;;;;28.77;16.08;;;3.10;83.00;;;;;;6220041;23;20199;-78
2023/01/25 02:31:38;;;;;;;26.40;14.60;;;3.00;83.00;;;;;;6218528;23;20214;-78
2023/01/25 02:34:06;;;;;;;26.40;14.93;;;3.00;83.00;;;;;;6219181;23;20508;-78
2023/01/25 02:36:35;;;;;;;26.45;15.40;;;2.90;83.10;;;;;;6184710;23;20187;-78
2023/01/25 02:39:07;;;;;;;28.63;15.82;;;2.90;83.10;;;;;;6182873;23;20198;-78
2023/01/25 02:41:38;;;;;;;29.83;18.00;;;2.90;83.20;;;;;;6182230;23;20203;-78
2023/01/25 02:44:10;;;;;;;34.42;18.23;;;2.90;83.40;;;;;;6182647;23;20176;-78
2023/01/25 02:46:43;;;;;;;30.60;17.13;;;2.90;83.40;;;;;;6181844;23;20196;-78
2023/01/25 02:49:12;;;;;;;32.90;17.75;;;2.90;83.40;;;;;;6182144;23;20204;-78
2023/01/25 02:51:42;;;;;;;31.90;16.17;;;2.90;83.50;;;;;;6218462;23;20216;-77
2023/01/25 02:54:11;;;;;;;27.70;16.10;;;2.90;83.40;;;;;;6183227;23;20263;-77
2023/01/25 02:56:40;;;;;;;31.52;17.27;;;2.90;83.40;;;;;;6182761;23;20804;-78
2023/01/25 02:59:12;;;;;;;32.67;17.80;;;2.90;83.40;;;;;;6183364;23;20200;-78
2023/01/25 03:01:43;;;;;;;29.42;16.70;;;2.90;83.40;;;;;;6182517;23;20178;-78
2023/01/25 03:04:11;;;;;;;26.83;16.75;;;2.90;83.40;;;;;;6182561;23;20180;-78
2023/01/25 03:06:40;;;;;;;28.10;16.40;;;2.80;83.40;;;;;;6183023;23;20194;-79
2023/01/25 03:09:10;;;;;;;28.33;16.48;;;2.80;83.50;;;;;;6183256;23;20199;-78
2023/01/25 03:11:43;;;;;;;35.55;18.85;;;2.80;83.50;;;;;;6182587;23;20168;-79
2023/01/25 03:14:12;;;;;;;30.80;17.00;;;2.80;83.40;;;;;;6182872;23;20183;-79
2023/01/25 03:16:40;;;;;;;31.58;17.58;;;2.80;83.50;;;;;;6182492;23;20187;-79
2023/01/25 03:19:09;;;;;;;32.00;19.08;;;2.80;83.50;;;;;;6184182;23;20200;-78
2023/01/25 03:21:40;;;;;;;35.30;18.92;;;2.80;83.60;;;;;;6182871;23;20191;-78
2023/01/25 03:24:10;;;;;;;31.85;17.38;;;2.80;83.60;;;;;;6185409;23;20578;-78
2023/01/25 03:29:48;;;;;;;30.92;18.33;;;2.80;83.60;;;;;;6069849;23;20222;-78
2023/01/25 03:32:21;;;;;;;36.28;18.63;;;2.80;83.60;;;;;;6170703;23;20183;-78
2023/01/25 03:34:49;;;;;;;30.77;18.27;;;2.80;83.70;;;;;;6188465;23;20230;-78
2023/01/25 03:37:18;;;;;;;31.92;19.25;;;2.90;83.80;;;;;;6184916;23;20172;-78
2023/01/25 03:39:48;;;;;;;37.30;21.45;;;2.90;83.70;;;;;;6187166;23;20588;-77
2023/01/25 03:42:16;;;;;;;31.30;18.40;;;2.90;83.60;;;;;;6220924;23;20657;-78
2023/01/25 03:44:44;;;;;;;31.73;19.38;;;2.90;83.70;;;;;;6181444;23;20259;-78
2023/01/25 03:47:13;;;;;;;36.40;19.00;;;2.90;83.60;;;;;;6218260;23;20198;-78
2023/01/25 03:49:42;;;;;;;31.35;19.45;;;2.90;83.60;;;;;;6182826;23;20209;-78
2023/01/25 03:52:11;;;;;;;34.78;19.45;;;2.80;83.70;;;;;;6181065;23;20180;-78
2023/01/25 03:54:41;;;;;;;34.60;18.75;;;2.90;83.70;;;;;;6181997;23;20639;-79
2023/01/25 03:57:10;;;;;;;31.05;17.05;;;2.90;83.70;;;;;;6218220;23;20178;-79
2023/01/25 03:59:51;;;;;;;30.42;17.40;;;2.90;83.70;;;;;;6181144;23;20200;-78
2023/01/25 04:02:21;;;;;;;36.65;18.60;;;2.90;83.50;;;;;;6179438;23;20207;-80
2023/01/25 04:04:49;;;;;;;33.25;18.17;;;2.90;83.60;;;;;;6181235;23;20180;-79
2023/01/25 04:07:19;;;;;;;34.22;17.85;;;2.90;83.60;;;;;;6181371;23;20505;-79
2023/01/25 04:09:49;;;;;;;41.33;20.15;;;2.80;83.50;;;;;;6187501;23;20966;-77
2023/01/25 04:12:17;;;;;;;30.80;17.83;;;2.80;83.50;;;;;;6186577;23;20263;-77
2023/01/25 04:14:46;;;;;;;30.30;15.98;;;2.80;83.60;;;;;;6224757;23;20184;-77
2023/01/25 04:17:21;;;;;;;30.10;17.15;;;2.80;83.50;;;;;;6185760;23;20171;-78
2023/01/25 04:19:59;;;;;;;33.35;17.65;;;2.80;83.50;;;;;;6186840;23;20232;-79
2023/01/25 04:22:34;;;;;;;35.45;20.67;;;2.80;83.60;;;;;;6184826;23;20189;-77
2023/01/25 04:25:05;;;;;;;40.15;20.40;;;2.80;83.60;;;;;;6185933;23;20177;-78
2023/01/25 04:27:33;;;;;;;42.70;21.20;;;2.80;83.60;;;;;;6185572;23;20199;-79
2023/01/25 04:30:07;;;;;;;36.15;18.88;;;2.80;83.60;;;;;;6186560;23;20168;-78
2023/01/25 04:32:38;;;;;;;35.88;18.73;;;2.80;83.60;;;;;;6185019;23;20295;-78
2023/01/25 04:35:19;;;;;;;35.42;19.52;;;2.70;83.70;;;;;;6186783;23;20169;-78
2023/01/25 04:37:53;;;;;;;34.88;18.55;;;2.80;83.60;;;;;;6185283;23;20237;-78
2023/01/25 04:40:24;;;;;;;37.20;19.45;;;2.70;83.70;;;;;;6187312;23;20176;-78
2023/01/25 04:42:51;;;;;;;36.47;19.10;;;2.80;83.70;;;;;;6185819;23;20184;-81
2023/01/25 04:45:19;;;;;;;34.35;17.88;;;2.80;83.70;;;;;;6187061;23;20202;-78
2023/01/25 04:47:49;;;;;;;38.08;21.00;;;2.80;83.80;;;;;;6186312;23;20196;-77
2023/01/25 04:50:17;;;;;;;39.80;20.23;;;2.80;83.70;;;;;;6187736;23;20600;-77
2023/01/25 04:52:46;;;;;;;39.33;20.00;;;2.80;83.70;;;;;;6185908;23;20231;-78
2023/01/25 04:55:14;;;;;;;39.17;19.52;;;2.80;83.70;;;;;;6188146;23;20181;-79
2023/01/25 04:57:43;;;;;;;35.75;20.77;;;2.80;83.70;;;;;;6186477;23;20177;-76
2023/01/25 05:00:12;;;;;;;35.70;20.27;;;2.80;83.70;;;;;;6186884;23;20176;-76
2023/01/25 05:02:40;;;;;;;40.60;19.90;;;2.80;83.80;;;;;;6184395;23;20577;-79
2023/01/25 05:05:10;;;;;;;35.17;18.88;;;2.80;83.70;;;;;;6224549;23;20180;-77
2023/01/25 05:07:39;;;;;;;44.15;21.48;;;2.80;83.60;;;;;;6186544;23;20196;-78
2023/01/25 05:10:11;;;;;;;35.38;20.02;;;2.80;83.60;;;;;;6187406;23;20181;-76
2023/01/25 05:12:46;;;;;;;39.33;20.33;;;2.80;83.70;;;;;;6186701;23;20177;-77
2023/01/25 05:15:14;;;;;;;37.65;19.35;;;2.80;83.70;;;;;;6189552;23;20267;-76
2023/01/25 05:17:44;;;;;;;39.47;20.00;;;2.80;83.70;;;;;;6186954;23;20176;-79
2023/01/25 05:20:13;;;;;;;43.25;22.15;;;2.80;83.60;;;;;;6187403;23;20615;-80
2023/01/25 05:22:41;;;;;;;42.28;22.27;;;2.80;83.70;;;;;;6223670;23;20219;-77
2023/01/25 05:26:59;;;;;;;38.03;20.70;;;2.80;83.70;;;;;;6188723;23;20217;-79
2023/01/25 05:27:57;;;;;;;35.97;18.08;;;2.80;83.90;;;;;;6188704;23;20211;-78
2023/01/25 05:30:43;;;;;;;34.00;18.25;;;2.90;84.00;;;;;;6187076;23;20279;-78
2023/01/25 05:33:22;;;;;;;44.80;22.95;;;2.90;83.80;;;;;;6179551;23;20175;-79
2023/01/25 05:35:52;;;;;;;34.67;19.58;;;2.90;83.90;;;;;;6180444;23;20183;-76
2023/01/25 05:38:20;;;;;;;43.00;19.95;;;3.00;83.90;;;;;;6180965;23;20200;-77
2023/01/25 05:40:48;;;;;;;32.25;19.17;;;3.00;83.70;;;;;;6180270;23;20668;-78
2023/01/25 05:43:16;;;;;;;33.80;19.45;;;3.00;83.70;;;;;;6180107;23;20176;-77
2023/01/25 05:45:52;;;;;;;34.15;19.42;;;3.00;83.70;;;;;;6193283;23;20189;-77
2023/01/25 05:48:20;;;;;;;38.40;21.13;;;3.00;83.80;;;;;;6214307;23;20294;-79
2023/01/25 05:50:48;;;;;;;36.45;20.67;;;3.00;83.80;;;;;;6186255;23;20272;-79
2023/01/25 05:53:25;;;;;;;34.13;19.00;;;3.00;83.80;;;;;;6185018;23;20172;-79
2023/01/25 05:55:54;;;;;;;37.30;18.10;;;3.10;83.70;;;;;;6181011;23;20172;-81
2023/01/25 05:58:30;;;;;;;34.88;19.80;;;3.00;83.60;;;;;;6226024;23;20199;-78
2023/01/25 06:01:00;;;;;;;35.97;18.55;;;3.00;83.60;;;;;;6182031;23;20172;-77
2023/01/25 06:03:38;;;;;;;39.72;17.67;;;3.00;83.60;;;;;;6179540;23;20180;-80
2023/01/25 06:06:06;;;;;;;32.22;16.42;;;3.00;83.50;;;;;;6181047;23;20556;-80
2023/01/25 06:08:37;;;;;;;31.60;17.45;;;2.90;83.50;;;;;;6179024;23;20211;-78
2023/01/25 06:11:09;;;;;;;37.47;19.92;;;2.90;83.50;;;;;;6180343;23;20172;-77
2023/01/25 06:13:42;;;;;;;36.17;19.30;;;2.90;83.50;;;;;;6178236;23;20716;-79
2023/01/25 06:16:10;;;;;;;28.38;15.80;;;2.80;83.60;;;;;;6180396;23;20774;-78
2023/01/25 06:18:42;;;;;;;36.35;18.67;;;2.80;83.60;;;;;;6217234;23;20279;-78
2023/01/25 06:21:18;;;;;;;33.88;19.10;;;2.80;83.60;;;;;;6216913;23;20164;-81
2023/01/25 06:23:48;;;;;;;40.28;19.02;;;2.80;83.60;;;;;;6216828;23;20163;-80
2023/01/25 06:26:16;;;;;;;35.67;19.50;;;2.90;83.70;;;;;;6218114;23;20235;-79
2023/01/25 06:28:44;;;;;;;37.25;20.42;;;2.90;83.70;;;;;;6216943;23;20705;-78
2023/01/25 06:31:14;;;;;;;44.65;26.90;;;2.90;83.70;;;;;;6218415;23;20172;-81
2023/01/25 06:33:43;;;;;;;43.20;23.73;;;2.90;83.60;;;;;;6180330;23;20258;-79
2023/01/25 06:36:13;;;;;;;42.75;24.20;;;2.90;83.60;;;;;;6181309;23;20710;-78
2023/01/25 06:38:42;;;;;;;41.85;22.58;;;2.90;83.60;;;;;;6217611;23;20196;-79
2023/01/25 06:41:12;;;;;;;43.60;20.70;;;2.90;83.50;;;;;;6218820;23;20195;-79
2023/01/25 06:43:40;;;;;;;43.60;22.50;;;2.80;83.60;;;;;;6217302;23;20181;-80
2023/01/25 06:46:10;;;;;;;44.08;22.75;;;2.80;83.70;;;;;;6218552;23;20176;-79
2023/01/25 06:48:39;;;;;;;48.70;26.00;;;2.90;83.90;;;;;;6218793;23;20254;-78
2023/01/25 06:51:09;;;;;;;50.47;26.40;;;3.00;84.00;;;;;;6218340;23;20671;-80
2023/01/25 06:53:40;;;;;;;49.03;26.10;;;3.10;84.00;;;;;;6225398;23;20198;-80
2023/01/25 06:56:12;;;;;;;49.95;24.63;;;3.10;83.70;;;;;;6227164;23;20157;-82
2023/01/25 06:58:41;;;;;;;55.35;28.98;;;3.10;83.50;;;;;;6190381;23;20200;-83
2023/01/25 07:01:12;;;;;;;49.72;26.50;;;3.10;83.70;;;;;;6227232;23;20176;-82
2023/01/25 07:03:41;;;;;;;45.47;24.20;;;3.10;83.60;;;;;;6188346;23;20168;-84
2023/01/25 07:06:11;;;;;;;44.65;24.75;;;3.10;83.70;;;;;;6190026;23;20179;-83
2023/01/25 07:08:39;;;;;;;45.65;23.88;;;3.20;83.60;;;;;;6189203;23;20204;-84
2023/01/25 07:11:12;;;;;;;44.47;22.58;;;3.10;83.40;;;;;;6226616;23;20224;-85
2023/01/25 07:13:44;;;;;;;44.10;20.50;;;3.10;83.40;;;;;;6189754;23;20886;-84
2023/01/25 07:16:14;;;;;;;52.13;24.23;;;3.00;83.40;;;;;;6190066;23;20830;-83
2023/01/25 07:18:42;;;;;;;46.88;22.73;;;3.00;83.40;;;;;;6225816;23;20198;-85
2023/01/25 07:21:12;;;;;;;37.67;20.48;;;3.00;83.40;;;;;;6189155;23;20176;-86
2023/01/25 07:23:41;;;;;;;45.78;19.55;;;2.90;83.50;;;;;;6189044;23;20168;-83
2023/01/25 07:26:16;;;;;;;49.67;22.40;;;2.90;83.50;;;;;;6188908;23;20178;-84
2023/01/25 07:28:46;;;;;;;34.40;19.17;;;2.90;83.60;;;;;;6188800;23;20210;-87
2023/01/25 07:31:15;;;;;;;42.60;19.98;;;2.90;83.70;;;;;;6189258;23;20171;-83
2023/01/25 07:33:51;;;;;;;47.58;21.98;;;2.90;83.70;;;;;;6224252;23;20225;-84
2023/01/25 07:36:20;;;;;;;44.75;21.48;;;3.00;83.80;;;;;;6187427;23;20271;-83
2023/01/25 07:38:49;;;;;;;44.88;22.02;;;3.00;83.70;;;;;;6189223;23;20288;-84
2023/01/25 07:41:16;;;;;;;46.40;23.35;;;3.00;83.70;;;;;;6189280;23;20694;-82
2023/01/25 07:43:46;;;;;;;42.47;21.60;;;3.10;83.70;;;;;;6188385;23;20176;-84
2023/01/25 07:46:20;;;;;;;41.97;19.58;;;3.10;83.60;;;;;;6188572;23;20164;-83
2023/01/25 07:48:50;;;;;;;37.17;19.70;;;3.10;83.50;;;;;;6188570;23;20203;-83
2023/01/25 07:51:22;;;;;;;46.35;21.73;;;3.00;83.50;;;;;;6225672;23;20176;-83
2023/01/25 07:53:52;;;;;;;56.35;29.48;;;3.00;83.60;;;;;;6188626;23;20232;-83
2023/01/25 07:56:22;;;;;;;58.42;25.45;;;3.00;83.60;;;;;;6225410;23;20167;-83
2023/01/25 07:58:52;;;;;;;34.70;18.40;;;3.00;83.70;;;;;;6188967;23;20232;-86
2023/01/25 08:01:22;;;;;;;46.10;23.15;;;3.10;83.70;;;;;;6225867;23;20160;-84
2023/01/25 08:03:50;;;;;;;44.70;21.02;;;3.10;83.70;;;;;;6224768;23;20231;-85
2023/01/25 08:06:26;;;;;;;47.95;23.63;;;3.10;83.70;;;;;;6224533;23;20179;-83
2023/01/25 08:08:55;;;;;;;62.75;34.40;;;3.10;83.50;;;;;;6222578;23;20184;-84
2023/01/25 08:11:25;;;;;;;53.70;28.15;;;3.10;83.50;;;;;;6223004;23;20770;-84
2023/01/25 08:13:55;;;;;;;63.25;30.35;;;3.10;83.60;;;;;;6185462;23;20164;-83
2023/01/25 08:16:26;;;;;;;70.78;28.88;;;3.10;83.70;;;;;;6186146;23;20605;-83
2023/01/25 08:18:56;;;;;;;48.47;22.73;;;3.10;83.60;;;;;;6222803;23;20271;-83
2023/01/25 08:21:28;;;;;;;58.95;30.27;;;3.10;83.40;;;;;;6186335;23;20222;-83
2023/01/25 08:23:58;;;;;;;51.22;25.33;;;3.10;83.50;;;;;;6185486;23;20917;-84
2023/01/25 08:26:26;;;;;;;43.25;22.70;;;3.10;83.50;;;;;;6222450;23;20553;-83
2023/01/25 08:28:55;;;;;;;34.72;18.17;;;3.10;83.50;;;;;;6223290;23;20514;-83
2023/01/25 08:31:25;;;;;;;42.08;22.20;;;3.10;83.60;;;;;;6222843;23;20683;-84
2023/01/25 08:33:53;;;;;;;55.00;30.60;;;3.10;83.80;;;;;;6222063;23;20169;-83
2023/01/25 08:36:22;;;;;;;53.45;26.58;;;3.20;83.70;;;;;;6222966;23;20169;-84
2023/01/25 08:38:55;;;;;;;44.22;24.95;;;3.20;83.70;;;;;;6222702;23;20516;-84
2023/01/25 08:41:24;;;;;;;49.95;26.27;;;3.20;83.70;;;;;;6223371;23;20259;-84
2023/01/25 08:43:53;;;;;;;75.38;38.53;;;3.30;83.60;;;;;;6222791;23;20708;-83
2023/01/25 08:46:24;;;;;;;57.50;30.17;;;3.30;83.40;;;;;;6223610;23;20592;-83
2023/01/25 08:48:54;;;;;;;47.30;26.25;;;3.20;83.20;;;;;;6225342;23;20199;-83
2023/01/25 08:51:23;;;;;;;43.47;22.15;;;3.20;83.40;;;;;;6226126;23;20184;-84
2023/01/25 08:53:51;;;;;;;45.47;25.48;;;3.20;83.60;;;;;;6198241;23;20180;-84
2023/01/25 08:56:19;;;;;;;49.72;27.05;;;3.20;83.60;;;;;;6223835;23;20183;-84
2023/01/25 08:58:49;;;;;;;41.60;21.55;;;3.20;83.70;;;;;;6186985;23;20203;-84
2023/01/25 09:01:19;;;;;;;40.10;20.65;;;3.20;83.70;;;;;;6188069;23;20203;-83
2023/01/25 09:03:50;;;;;;;40.88;19.77;;;3.30;83.60;;;;;;6187442;23;20176;-83
2023/01/25 09:06:19;;;;;;;60.85;34.30;;;3.30;83.60;;;;;;6224009;23;20711;-83
2023/01/25 09:08:47;;;;;;;51.10;27.85;;;3.30;83.60;;;;;;6188876;23;20211;-83
2023/01/25 09:11:17;;;;;;;51.03;27.13;;;3.30;83.50;;;;;;6188749;23;20246;-84
2023/01/25 09:13:47;;;;;;;45.35;27.40;;;3.20;83.40;;;;;;6225547;23;20161;-83
2023/01/25 09:16:17;;;;;;;46.75;24.40;;;3.20;83.50;;;;;;6188150;23;20172;-82
2023/01/25 09:18:46;;;;;;;39.63;21.10;;;3.20;83.60;;;;;;6188611;23;20287;-84
2023/01/25 09:21:19;;;;;;;43.72;24.05;;;3.30;83.60;;;;;;6226364;23;20229;-83
2023/01/25 09:23:49;;;;;;;43.95;21.33;;;3.30;83.70;;;;;;6188327;23;20185;-83
2023/01/25 09:26:24;;;;;;;49.97;25.23;;;3.30;83.70;;;;;;6187921;23;20180;-83
2023/01/25 09:28:54;;;;;;;54.35;25.63;;;3.40;83.70;;;;;;6188683;23;20199;-82
2023/01/25 09:31:23;;;;;;;52.72;24.02;;;3.40;83.70;;;;;;6224256;23;20198;-83
2023/01/25 09:34:21;;;;;;;41.60;22.05;;;3.40;83.60;;;;;;6201765;23;20279;-83
2023/01/25 09:36:50;;;;;;;49.35;21.35;;;3.40;83.50;;;;;;6224088;23;20509;-83
2023/01/25 09:39:19;;;;;;;44.47;22.42;;;3.40;83.30;;;;;;6187859;23;20852;-85
2023/01/25 09:42:17;;;;;;;41.90;21.67;;;3.30;83.20;;;;;;6188261;23;20186;-84
2023/01/25 09:45:16;;;;;;;44.58;22.98;;;3.20;83.40;;;;;;6187056;23;20247;-83
2023/01/25 09:47:49;;;;;;;45.75;23.73;;;3.20;83.60;;;;;;6222538;23;20183;-83
2023/01/25 09:50:32;;;;;;;51.85;30.38;;;3.30;83.60;;;;;;6186987;23;20199;-84
2023/01/25 09:53:26;;;;;;;41.67;23.85;;;3.30;83.70;;;;;;6186100;23;20179;-84
2023/01/25 09:55:59;;;;;;;46.38;25.13;;;3.30;83.60;;;;;;6187614;23;20176;-83
2023/01/25 09:58:32;;;;;;;42.03;25.05;;;3.20;83.50;;;;;;6223476;23;20581;-83
2023/01/25 10:01:20;;;;;;;59.05;29.75;;;3.20;83.60;;;;;;6223691;23;20239;-83
2023/01/25 10:04:11;;;;;;;47.10;23.27;;;3.30;83.60;;;;;;6224128;23;20164;-83
2023/01/25 10:06:41;;;;;;;50.10;24.73;;;3.30;83.50;;;;;;6187017;23;20183;-84
2023/01/25 10:09:31;;;;;;;47.97;24.13;;;3.20;83.50;;;;;;6187657;23;20198;-83
2023/01/25 10:12:09;;;;;;;50.47;24.45;;;3.30;83.60;;;;;;6187356;23;20381;-83
2023/01/25 10:14:37;;;;;;;49.08;25.80;;;3.20;83.50;;;;;;6188274;23;20169;-81
2023/01/25 10:17:11;;;;;;;48.67;25.33;;;3.20;83.50;;;;;;6225368;23;20184;-83
2023/01/25 10:19:51;;;;;;;54.53;25.17;;;3.20;83.70;;;;;;6187623;23;20207;-83
2023/01/25 10:22:21;;;;;;;47.03;21.05;;;3.30;83.70;;;;;;6223786;23;20172;-83
2023/01/25 10:25:02;;;;;;;46.20;21.23;;;3.30;83.70;;;;;;6188223;23;20180;-83
2023/01/25 10:27:43;;;;;;;47.78;22.17;;;3.30;83.70;;;;;;6224509;23;20160;-83
2023/01/25 10:30:23;;;;;;;39.85;20.63;;;3.30;83.50;;;;;;6187453;23;20168;-84
2023/01/25 10:32:52;;;;;;;45.13;22.10;;;3.30;83.50;;;;;;6187932;23;20188;-82
2023/01/25 10:35:29;;;;;;;43.97;22.08;;;3.20;83.50;;;;;;6224586;23;20157;-83
2023/01/25 10:38:10;;;;;;;45.25;21.80;;;3.20;83.70;;;;;;6188380;23;20182;-84
2023/01/25 10:40:43;;;;;;;40.97;21.60;;;3.20;83.50;;;;;;6223732;23;20572;-83
2023/01/25 10:43:17;;;;;;;48.85;21.80;;;3.20;83.60;;;;;;6223682;23;20156;-83
2023/01/25 10:45:46;;;;;;;44.20;23.25;;;3.20;83.60;;;;;;6225348;23;20164;-85
2023/01/25 10:48:19;;;;;;;39.53;20.90;;;3.20;83.60;;;;;;6224146;23;20680;-84
2023/01/25 10:50:50;;;;;;;44.50;21.13;;;3.20;83.60;;;;;;6224235;23;20180;-84
2023/01/25 10:53:30;;;;;;;49.28;23.08;;;3.20;83.70;;;;;;6188110;23;20183;-83
2023/01/25 10:56:15;;;;;;;61.85;31.33;;;3.20;83.70;;;;;;6225600;23;20188;-83
2023/01/25 10:58:47;;;;;;;43.38;24.00;;;3.30;83.80;;;;;;6226652;23;20196;-83
2023/01/25 11:01:26;;;;;;;45.00;23.88;;;3.30;83.70;;;;;;6190826;23;20172;-84
2023/01/25 11:03:55;;;;;;;50.45;27.90;;;3.30;83.70;;;;;;6225343;23;20171;-84
2023/01/25 11:06:32;;;;;;;47.40;24.33;;;3.30;83.60;;;;;;6189796;23;20207;-84
2023/01/25 11:09:30;;;;;;;48.80;22.08;;;3.30;83.50;;;;;;6197626;23;20192;-84
2023/01/25 11:11:59;;;;;;;37.80;20.77;;;3.30;83.60;;;;;;6195211;23;20188;-83
2023/01/25 11:14:30;;;;;;;42.97;23.25;;;3.30;83.90;;;;;;6236819;23;20171;-80
2023/01/25 11:17:00;;;;;;;43.00;23.88;;;3.40;84.10;;;;;;6195590;23;20176;-80
2023/01/25 11:19:32;;;;;;;41.50;20.80;;;3.50;84.00;;;;;;6225624;23;20192;-79
2023/01/25 11:22:02;;;;;;;48.13;23.75;;;3.60;83.80;;;;;;6223477;23;20188;-79
2023/01/25 11:24:31;;;;;;;39.67;22.27;;;3.60;84.00;;;;;;6222130;23;20176;-80
2023/01/25 11:27:16;;;;;;;46.45;25.30;;;3.70;84.00;;;;;;6222541;23;20255;-81
2023/01/25 11:29:46;;;;;;;60.88;28.45;;;3.70;83.90;;;;;;6222256;23;20246;-78
2023/01/25 11:32:21;;;;;;;41.90;22.13;;;3.80;83.90;;;;;;6223046;23;20176;-79
2023/01/25 11:34:50;;;;;;;58.63;24.70;;;3.90;83.80;;;;;;6219523;23;20159;-80
2023/01/25 11:37:33;;;;;;;44.42;22.27;;;3.90;83.70;;;;;;6219716;23;20236;-78
2023/01/25 11:40:14;;;;;;;91.60;33.30;;;4.00;83.40;;;;;;6218138;23;20283;-79
2023/01/25 11:42:57;;;;;;;71.05;26.88;;;3.90;83.20;;;;;;6217578;23;20161;-80
2023/01/25 11:46:05;;;;;;;66.90;21.85;;;3.90;83.20;;;;;;6221221;23;20160;-83
2023/01/25 11:48:52;;;;;;;99.30;32.95;;;3.80;83.10;;;;;;6217683;23;20614;-81
2023/01/25 11:51:26;;;;;;;92.25;31.65;;;3.80;83.20;;;;;;6220090;23;20690;-77
2023/01/25 11:54:06;;;;;;;39.15;20.95;;;3.90;83.50;;;;;;6218930;23;20165;-79
2023/01/25 11:56:45;;;;;;;39.83;22.35;;;4.00;83.50;;;;;;6215741;23;20175;-79
2023/01/25 11:59:30;;;;;;;51.60;27.80;;;4.10;83.50;;;;;;6216432;23;20192;-79
2023/01/25 12:02:24;;;;;;;40.15;21.13;;;4.10;83.10;;;;;;6215035;23;20153;-78
2023/01/25 12:05:03;;;;;;;51.75;23.35;;;4.10;82.90;;;;;;6220693;23;20172;-82
2023/01/25 12:07:57;;;;;;;47.50;25.30;;;4.10;82.60;;;;;;6223674;23;20157;-79
2023/01/25 12:10:35;;;;;;;42.75;22.25;;;4.00;82.60;;;;;;6222896;23;20164;-82
2023/01/25 12:13:11;;;;;;;47.92;24.63;;;4.00;82.40;;;;;;6220573;23;20180;-80
2023/01/25 12:16:00;;;;;;;48.47;26.13;;;3.90;82.80;;;;;;6224202;23;20168;-79
2023/01/25 12:18:46;;;;;;;41.40;22.25;;;4.00;82.80;;;;;;6224158;23;20212;-79
2023/01/25 12:21:30;;;;;;;48.80;26.30;;;4.00;82.50;;;;;;6219292;23;20477;-80
2023/01/25 12:24:13;;;;;;;55.65;29.35;;;4.00;82.60;;;;;;6219235;23;20248;-80
2023/01/25 12:26:54;;;;;;;49.97;26.42;;;4.00;82.70;;;;;;6222216;23;20164;-78
2023/01/25 12:29:29;;;;;;;48.78;25.27;;;4.00;82.70;;;;;;6225697;23;20281;-78
2023/01/25 12:32:04;;;;;;;46.40;24.33;;;4.10;82.70;;;;;;6219436;23;20219;-81
2023/01/25 12:34:37;;;;;;;48.47;25.20;;;4.10;82.40;;;;;;6221044;23;20315;-81
2023/01/25 12:37:13;;;;;;;58.92;28.10;;;4.00;82.10;;;;;;6220328;23;20161;-80
2023/01/25 12:39:59;;;;;;;44.70;25.40;;;4.00;82.20;;;;;;6219786;23;20624;-80
2023/01/25 12:42:35;;;;;;;47.15;26.00;;;4.00;82.00;;;;;;6184807;23;20169;-80
2023/01/25 12:45:09;;;;;;;36.65;21.23;;;3.90;82.30;;;;;;6221722;23;20160;-79
2023/01/25 12:47:43;;;;;;;37.05;19.75;;;4.00;82.20;;;;;;6217948;23;20218;-79
2023/01/25 12:50:17;;;;;;;37.15;19.33;;;4.00;82.30;;;;;;6182183;23;20203;-81
2023/01/25 12:52:49;;;;;;;35.15;20.65;;;4.00;82.20;;;;;;6181995;23;20189;-82
2023/01/25 12:55:18;;;;;;;37.75;20.95;;;4.00;82.20;;;;;;6220788;23;20260;-82
2023/01/25 12:57:56;;;;;;;41.70;23.42;;;4.00;82.30;;;;;;6223659;23;20164;-81
2023/01/25 13:00:36;;;;;;;34.28;20.77;;;4.00;81.90;;;;;;6227657;23;20160;-82
2023/01/25 13:03:24;;;;;;;37.50;21.48;;;4.00;82.00;;;;;;6190151;23;20667;-80
2023/01/25 13:06:01;;;;;;;40.85;21.15;;;4.00;81.90;;;;;;6220886;23;20167;-79
2023/01/25 13:08:42;;;;;;;38.58;21.90;;;4.00;82.00;;;;;;6182171;23;20195;-80